Impacts TAF Board INFO
FOR SITUATIONAL AWARENESS. NOT TO BE USED FOR FLIGHT PLANNING PURPOSES.
IDs:

KMEM - Memphis Intl, TN, US

Issued at 1452 UTC 18 Jan 2018
Updated at 1725 UTC 18 Jan 2018
Potential Impact None Slight Moderate High
Time1654Z 18/18Z 18/19Z 18/20Z 18/21Z 18/22Z 18/23Z 19/00Z 19/01Z 19/02Z 19/03Z 19/04Z 19/05Z 19/06Z>>
Type OBS PRVL PRVL PRVL PRVL PRVL PRVL PRVL PRVL PRVL PRVL PRVL PRVL PRVL
VIS 10 >6 >6 >6 >6 >6 >6 >6 >6 >6 >6 >6 >6 >6
CIG -- -- -- -- -- -- -- -- -- -- -- -- -- --
Cover CLR SKC SKC SKC SKC SKC SKC SKC SKC SKC SKC SKC SKC SKC
FltCat VFR VFR VFR VFR VFR VFR VFR VFR VFR VFR VFR VFR VFR VFR
WX -- -- -- -- -- -- -- -- -- -- -- -- -- --
WDir 250 220 220 220 220 220 220 200 200 200 200 200 200 200
WSpd 6 7 7 7 7 7 7 3 3 3 3 3 3 3
WGst -- -- -- -- -- -- -- -- -- -- -- -- -- --

Raw TAF
KMEM 181452Z 1815/1918 22007KT P6SM SKC
  FM190000 20003KT P6SM SKC


Raw METAR
KMEM 181654Z 25006KT 10SM CLR M01/M11 A3056 RMK AO2 SLP354 T10111106 $
KMEM 181554Z COR 23006KT 10SM CLR M04/M11 A3056 RMK AO2 SLP354 P0000 T10391111 $
KMEM 181454Z 21003KT 10SM CLR M07/M11 A3056 RMK AO2 SLP352 T10671106 50002 $

METAR Board
Radar Display
Forecast Discussion

FOR SITUATIONAL AWARENESS. NOT TO BE USED FOR FLIGHT PLANNING PURPOSES.